Terminal Aerodrome Forecast
Issued by NWS Sterling, VA

Current Version | Previous Version | Text Only | Print | Product List | Glossary Off
Versions: 1 2 3 4 5 6 7 8 9 10 11 12 13 14 15 16 17 18 19 20 21 22 23 24

000
FTUS41 KLWX 281100
TAFIAD
TAF
KIAD 281135Z 2812/2918 19006KT P6SM BKN250
     FM281700 18008G16KT P6SM SCT250
     FM282300 20005KT P6SM FEW250
     FM290900 VRB03KT P6SM BKN050
     FM291500 30007KT 6SM -SHRA OVC050=

USA.gov is the U.S. government's official web portal to all federal, state and local government web resources and services.